• Join FlightAware (Why Join?)
  • Login
  • US Flag 
02:48PM EDT


 

Airport Tracker/Info


-or-


 

Live Flight TrackerFlight Track Log ✈ TAM3859 ✈ 19-Jun-2013 ✈ SBEG / MAO - SBFZ / FOR

Flight Track Log - Related Links

Times and Time Zones

All times are in EDT time to prevent confusion due to time zone crossing. See the TAM3859 flight status page for this flight to view local times or setup timezone preferences in your user account.

Time Position Orientation Groundspeed Altitude Reporting Facility
EDT Latitude Longitude Course Direction KTS MPH feet Rate Location/Type
02:51AM -3.2332 -55.5300 93° East  Level Estimated
02:52AM -3.2377 -55.4197 92° East  Level Estimated
02:53AM -3.2422 -55.3094 92° East  Level Estimated
02:54AM -3.2466 -55.1992 92° East  Level Estimated
02:55AM -3.2511 -55.0889 92° East  Level Estimated
02:56AM -3.2555 -54.9787 92° East  Level Estimated
02:57AM -3.2600 -54.8684 92° East  Level Estimated
02:58AM -3.2644 -54.7581 92° East  Level Estimated
02:59AM -3.2688 -54.6479 92° East  Level Estimated
03:00AM -3.2732 -54.5376 92° East  Level Estimated
03:01AM -3.2776 -54.4273 92° East  Level Estimated
03:02AM -3.2820 -54.3171 92° East  Level Estimated
03:03AM -3.2864 -54.2068 92° East  Level Estimated
03:04AM -3.2907 -54.0965 92° East  Level Estimated
03:05AM -3.2950 -53.9863 92° East  Level Estimated
03:06AM -3.2994 -53.8760 92° East  Level Estimated
03:07AM -3.3037 -53.7657 92° East  Level Estimated
03:08AM -3.3080 -53.6554 92° East  Level Estimated
03:09AM -3.3123 -53.5452 92° East  Level Estimated
03:10AM -3.3166 -53.4349 92° East  Level Estimated
03:11AM -3.3208 -53.3246 92° East  Level Estimated
03:12AM -3.3251 -53.2143 92° East  Level Estimated
03:13AM -3.3293 -53.1040 92° East  Level Estimated
03:14AM -3.3336 -52.9938 92° East  Level Estimated
03:15AM -3.3378 -52.8835 92° East  Level Estimated
03:16AM -3.3420 -52.7732 92° East  Level Estimated
03:17AM -3.3462 -52.6629 92° East  Level Estimated
03:18AM -3.3504 -52.5527 92° East  Level Estimated
03:19AM -3.3546 -52.4424 92° East  Level Estimated
03:20AM -3.3587 -52.3321 92° East  Level Estimated
03:21AM -3.3629 -52.2218 92° East  Level Estimated
03:22AM -3.3670 -52.1115 92° East  Level Estimated
03:23AM -3.3711 -52.0012 92° East  Level Estimated
03:24AM -3.3752 -51.8909 92° East  Level Estimated
03:25AM -3.3793 -51.7806 92° East  Level Estimated
03:26AM -3.3834 -51.6703 92° East  Level Estimated
03:27AM -3.3875 -51.5601 92° East  Level Estimated
03:28AM -3.3915 -51.4498 92° East  Level Estimated
03:29AM -3.3956 -51.3395 92° East  Level Estimated
03:30AM -3.3996 -51.2292 92° East  Level Estimated
03:31AM -3.4036 -51.1189 92° East  Level Estimated
03:32AM -3.4076 -51.0086 92° East  Level Estimated
03:33AM -3.4116 -50.8983 92° East  Level Estimated
03:34AM -3.4156 -50.7880 92° East  Level Estimated
03:35AM -3.4196 -50.6777 92° East  Level Estimated
03:36AM -3.4236 -50.5674 92° East  Level Estimated
03:37AM -3.4275 -50.4571 92° East  Level Estimated
03:38AM -3.4314 -50.3468 92° East  Level Estimated
03:39AM -3.4353 -50.2365 92° East  Level Estimated
03:40AM -3.4393 -50.1262 92° East  Level Estimated
03:41AM -3.4432 -50.0159 92° East  Level Estimated
03:42AM -3.4470 -49.9056 92° East  Level Estimated
03:43AM -3.4509 -49.7953 92° East  Level Estimated
03:44AM -3.4548 -49.6850 92° East  Level Estimated
03:45AM -3.4586 -49.5746 92° East  Level Estimated
03:46AM -3.4624 -49.4643 92° East  Level Estimated
03:47AM -3.4662 -49.3540 92° East  Level Estimated
03:48AM -3.4701 -49.2437 92° East  Level Estimated
03:49AM -3.4738 -49.1334 92° East  Level Estimated
03:50AM -3.4776 -49.0231 92° East  Level Estimated
03:51AM -3.4814 -48.9128 92° East  Level Estimated
03:52AM -3.4851 -48.8025 92° East  Level Estimated
03:53AM -3.4889 -48.6922 92° East  Level Estimated
03:54AM -3.4926 -48.5818 92° East  Level Estimated
03:55AM -3.4963 -48.4715 92° East  Level Estimated
03:56AM -3.5000 -48.3612 92° East  Level Estimated
03:57AM -3.5037 -48.2509 92° East  Level Estimated
03:58AM -3.5074 -48.1405 92° East  Level Estimated
03:59AM -3.5110 -48.0302 92° East  Level Estimated
04:00AM -3.5147 -47.9199 92° East  Level Estimated
04:01AM -3.5183 -47.8096 92° East  Level Estimated
04:02AM -3.5220 -47.6993 92° East  Level Estimated
04:03AM -3.5256 -47.5890 92° East  Level Estimated
04:04AM -3.5292 -47.4786 92° East  Level Estimated
04:05AM -3.5327 -47.3683 92° East  Level Estimated
04:06AM -3.5363 -47.2580 92° East  Level Estimated
04:07AM -3.5399 -47.1476 92° East  Level Estimated
04:08AM -3.5434 -47.0373 92° East  Level Estimated
04:09AM -3.5470 -46.9270 92° East  Level Estimated
04:10AM -3.5505 -46.8166 92° East  Level Estimated
04:11AM -3.5540 -46.7063 92° East  Level Estimated
04:12AM -3.5575 -46.5960 92° East  Level Estimated
04:13AM -3.5610 -46.4856 92° East  Level Estimated
04:14AM -3.5644 -46.3753 92° East  Level Estimated
04:15AM -3.5679 -46.2650 92° East  Level Estimated
04:16AM -3.5713 -46.1547 92° East  Level Estimated
04:17AM -3.5747 -46.0443 92° East  Level Estimated
04:18AM -3.5782 -45.9340 92° East  Level Estimated
04:19AM -3.5816 -45.8236 92° East  Level Estimated
04:20AM -3.5849 -45.7133 92° East  Level Estimated
04:21AM -3.5883 -45.6030 92° East  Level Estimated
04:22AM -3.5917 -45.4926 92° East  Level Estimated
04:23AM -3.5950 -45.3823 92° East  Level Estimated
04:24AM -3.5984 -45.2719 92° East  Level Estimated
04:25AM -3.6017 -45.1616 92° East  Level Estimated
04:26AM -3.6050 -45.0513 92° East  Level Estimated
04:27AM -3.6083 -44.9409 92° East  Level Estimated
04:28AM -3.6116 -44.8306 92° East  Level Estimated
04:29AM -3.6148 -44.7202 92° East  Level Estimated
04:30AM -3.6181 -44.6099 92° East  Level Estimated
04:31AM -3.6213 -44.4995 92° East  Level Estimated
04:32AM -3.6246 -44.3892 92° East  Level Estimated
04:33AM -3.6278 -44.2788 92° East  Level Estimated
04:34AM -3.6310 -44.1685 92° East  Level Estimated
04:35AM -3.6342 -44.0581 92° East  Level Estimated
04:36AM -3.6373 -43.9478 92° East  Level Estimated
04:37AM -3.6405 -43.8374 92° East  Level Estimated
04:38AM -3.6436 -43.7271 92° East  Level Estimated
04:39AM -3.6468 -43.6167 92° East  Level Estimated
04:40AM -3.6499 -43.5064 92° East  Level Estimated
04:41AM -3.6530 -43.3960 92° East  Level Estimated
04:42AM -3.6561 -43.2856 92° East  Level Estimated
04:43AM -3.6592 -43.1753 92° East  Level Estimated
04:44AM -3.6622 -43.0649 92° East  Level Estimated
04:45AM -3.6653 -42.9546 92° East  Level Estimated
04:46AM -3.6683 -42.8442 92° East  Level Estimated
04:47AM -3.6713 -42.7338 92° East  Level Estimated
04:48AM -3.6744 -42.6235 92° East  Level Estimated
04:49AM -3.6774 -42.5131 92° East  Level Estimated
04:50AM -3.6803 -42.4028 92° East  Level Estimated
04:51AM -3.6833 -42.2924 92° East  Level Estimated
04:52AM -3.6863 -42.1820 92° East  Level Estimated
04:53AM -3.6892 -42.0717 92° East  Level Estimated
04:54AM -3.6921 -41.9613 92° East  Level Estimated
04:55AM -3.6951 -41.8509 92° East  Level Estimated
04:56AM -3.6979 -41.7406 92° East  Level Estimated
04:57AM -3.7008 -41.6302 92° East  Level Estimated
04:58AM -3.7037 -41.5198 91° East  Level Estimated
04:59AM -3.7066 -41.4095 91° East  Level Estimated
05:00AM -3.7094 -41.2991 91° East  Level Estimated
05:01AM -3.7122 -41.1887 91° East  Level Estimated
05:02AM -3.7151 -41.0784 91° East  Level Estimated
05:03AM -3.7179 -40.9680 91° East  Level Estimated
05:04AM -3.7207 -40.8576 91° East  Level Estimated
05:05AM -3.7234 -40.7472 91° East  Level Estimated
05:06AM -3.7262 -40.6369 91° East  Level Estimated
05:07AM -3.7290 -40.5265 91° East  Level Estimated
05:08AM -3.7317 -40.4161 91° East  Level Estimated
05:09AM -3.7344 -40.3058 91° East  Level Estimated
05:10AM -3.7371 -40.1954 91° East  Level Estimated
05:11AM -3.7398 -40.0850 91° East  Level Estimated
05:12AM -3.7425 -39.9746 91° East  Level Estimated
05:13AM -3.7452 -39.8642 91° East  Level Estimated
05:14AM -3.7478 -39.7539 91° East  Level Estimated
05:15AM -3.7505 -39.6435 91° East  Level Estimated
05:16AM -3.7531 -39.5331 91° East  Level Estimated
05:17AM -3.7557 -39.4227 91° East  Level Estimated
05:18AM -3.7583 -39.3123 91° East  Level Estimated
05:19AM -3.7609 -39.2020 91° East  Level Estimated
05:20AM -3.7635 -39.0916 91° East  Level Estimated
05:21AM -3.7660 -38.9812 91° East  Level Estimated
05:22AM -3.7686 -38.8708 91° East  Level Estimated
05:23AM -3.7711 -38.7604 91° East  Level Estimated
05:24AM -3.7736 -38.6501 91° East  Level Estimated
05:25AM -3.7761 -38.5397 91° East  Level Estimated
05:26AM -3.7763 -38.5326 91° East  Level Estimated
05:27AM -3.7763 -38.5326 127° Southeast  Level Estimated
05:28AM -3.7763 -38.5326 127° Southeast  Level Estimated
05:29AM -3.7763 -38.5326 127° Southeast  Level Estimated
05:30AM -3.7763 -38.5326 127° Southeast  Level Estimated
05:31AM -3.7763 -38.5326 127° Southeast  Level Estimated
05:32AM -3.7763 -38.5326 127° Southeast  Level Estimated
05:33AM -3.7763 -38.5326 127° Southeast  Level Estimated
05:34AM -3.7763 -38.5326 127° Southeast  Level Estimated
05:35AM -3.7763 -38.5326 127° Southeast  Level Estimated
05:36AM -3.7763 -38.5326 127° Southeast  Level Estimated
05:37AM -3.7763 -38.5326 127° Southeast  Level Estimated
05:38AM -3.7763 -38.5326 127° Southeast  Level Estimated
05:39AM -3.7763 -38.5326 127° Southeast  Level Estimated
05:40AM -3.7763 -38.5326 127° Southeast  Level Estimated
05:41AM -3.7763 -38.5326 127° Southeast  Level Estimated